Time;durP1;ratioP1;P1;durP2;ratioP2;P2;SDS_P1;SDS_P2;PMS_P1;PMS_P2;Temp;Humidity;BMP_temperature;BMP_pressure;BME280_temperature;BME280_humidity;BME280_pressure;Samples;Min_cycle;Max_cycle;Signal;HPM_P1;HPM_P2
2021/08/22 00:01:15;;;;;;;7.33;6.70;;;;;;;20.84;91.33;96475.91;5072081;28;20181;-59
2021/08/22 00:03:40;;;;;;;7.37;6.07;;;;;;;20.74;92.81;96484.06;5070833;28;20178;-57
2021/08/22 00:06:05;;;;;;;7.20;6.60;;;;;;;20.85;92.89;96488.19;5061128;28;20240;-58
2021/08/22 00:08:31;;;;;;;7.20;6.50;;;;;;;21.18;90.78;96483.75;5051950;28;20521;-59
2021/08/22 00:10:56;;;;;;;7.53;6.93;;;;;;;21.48;89.37;96480.63;5051915;28;20172;-58
2021/08/22 00:13:22;;;;;;;6.60;6.10;;;;;;;21.56;88.79;96482.63;5051360;28;20175;-57
2021/08/22 00:15:48;;;;;;;6.67;6.03;;;;;;;21.67;89.00;96494.75;5055381;28;20261;-60
2021/08/22 00:18:13;;;;;;;8.20;6.70;;;;;;;21.31;91.43;96533.81;5054970;28;20168;-58
2021/08/22 00:20:39;;;;;;;7.17;6.47;;;;;;;20.11;98.70;96552.00;5073855;28;20779;-59
2021/08/22 00:23:05;;;;;;;8.67;7.87;;;;;;;20.11;100.00;96587.47;5079542;28;20214;-59
2021/08/22 00:25:31;;;;;;;11.17;6.77;;;;;;;18.93;100.00;96602.06;5074792;28;20206;-58
2021/08/22 00:27:56;;;;;;;9.90;7.37;;;;;;;18.73;100.00;96623.41;5075031;28;20175;-61
2021/08/22 00:30:22;;;;;;;8.80;4.40;;;;;;;18.04;100.00;96613.38;5074928;28;20503;-60
2021/08/22 00:32:47;;;;;;;4.80;3.50;;;;;;;17.62;100.00;96615.44;5074416;28;20171;-58
2021/08/22 00:35:12;;;;;;;5.80;3.83;;;;;;;17.14;100.00;96632.53;5073873;28;20203;-59
2021/08/22 00:37:38;;;;;;;4.63;3.20;;;;;;;16.80;100.00;96611.94;5075046;28;20681;-58
2021/08/22 00:40:04;;;;;;;3.50;3.20;;;;;;;16.72;100.00;96609.81;5074950;28;20173;-58
2021/08/22 00:42:33;;;;;;;3.10;2.80;;;;;;;16.78;100.00;96596.28;5074519;28;20178;-58
2021/08/22 00:45:00;;;;;;;3.70;2.80;;;;;;;17.32;100.00;96552.38;5073470;28;20440;-56
2021/08/22 00:47:26;;;;;;;3.10;2.80;;;;;;;17.40;100.00;96543.91;5074353;28;20783;-57
2021/08/22 00:49:51;;;;;;;3.90;3.60;;;;;;;17.29;100.00;96541.50;5068208;28;20418;-57
2021/08/22 00:52:17;;;;;;;3.33;2.73;;;;;;;17.44;100.00;96531.69;5053210;28;20750;-58
2021/08/22 00:54:42;;;;;;;5.80;4.43;;;;;;;17.71;100.00;96518.19;5052789;28;20253;-59
2021/08/22 00:57:09;;;;;;;4.40;3.30;;;;;;;18.04;100.00;96512.31;5054569;28;20179;-59
2021/08/22 00:59:37;;;;;;;4.37;3.37;;;;;;;17.98;100.00;96499.28;5054380;28;20194;-57
2021/08/22 01:02:04;;;;;;;4.93;3.67;;;;;;;18.14;100.00;96484.88;5054516;28;20409;-57
2021/08/22 01:04:57;;;;;;;3.33;3.07;;;;;;;18.63;100.00;96485.00;5056171;28;20437;-58
2021/08/22 01:07:22;;;;;;;3.87;3.47;;;;;;;18.99;100.00;96489.88;5074436;28;20409;-59
2021/08/22 01:09:50;;;;;;;4.30;3.90;;;;;;;18.62;100.00;96497.53;5074130;28;20432;-57
2021/08/22 01:12:25;;;;;;;4.73;3.13;;;;;;;18.34;100.00;96487.47;5074246;28;20543;-59
2021/08/22 01:14:56;;;;;;;3.53;3.23;;;;;;;17.87;100.00;96487.06;5073693;28;20492;-58
2021/08/22 01:17:26;;;;;;;4.17;3.63;;;;;;;18.50;100.00;96483.72;5074220;28;20409;-59
2021/08/22 01:20:10;;;;;;;3.70;3.40;;;;;;;18.90;100.00;96461.44;5063714;28;20421;-59
2021/08/22 01:22:39;;;;;;;5.67;4.20;;;;;;;19.23;100.00;96453.50;5053762;28;20417;-58
2021/08/22 01:25:08;;;;;;;4.70;3.90;;;;;;;19.49;100.00;96441.56;5053663;28;20445;-57
2021/08/22 01:27:36;;;;;;;3.67;3.37;;;;;;;19.19;100.00;96448.97;5054011;28;20406;-59
2021/08/22 01:30:09;;;;;;;3.47;3.17;;;;;;;19.27;100.00;96445.75;5055211;28;20428;-59
2021/08/22 01:32:44;;;;;;;4.03;3.43;;;;;;;18.73;100.00;96445.03;5054125;28;20402;-59
2021/08/22 01:35:13;;;;;;;5.10;4.00;;;;;;;18.66;100.00;96445.31;5053978;28;20861;-59
2021/08/22 01:37:40;;;;;;;5.10;3.90;;;;;;;18.16;100.00;96458.81;5054052;28;20402;-59
2021/08/22 01:40:08;;;;;;;4.53;4.13;;;;;;;18.24;100.00;96463.56;5053855;28;20430;-57
2021/08/22 01:42:35;;;;;;;4.87;4.17;;;;;;;18.79;100.00;96458.03;5054037;28;20410;-59
2021/08/22 01:45:03;;;;;;;4.40;4.00;;;;;;;19.00;100.00;96453.38;5054468;28;20948;-58
2021/08/22 01:47:29;;;;;;;3.73;3.33;;;;;;;19.07;100.00;96449.34;5074003;28;20513;-58
2021/08/22 01:49:55;;;;;;;4.57;3.97;;;;;;;19.20;100.00;96447.94;5073819;28;20411;-59
2021/08/22 01:52:22;;;;;;;5.43;4.10;;;;;;;19.30;100.00;96443.31;5073827;28;20406;-58
2021/08/22 01:54:47;;;;;;;4.40;3.93;;;;;;;19.62;100.00;96444.69;5073124;28;20484;-59
2021/08/22 01:57:13;;;;;;;4.77;3.90;;;;;;;19.76;100.00;96448.28;5073994;28;20487;-59
2021/08/22 01:59:39;;;;;;;4.50;4.10;;;;;;;20.01;100.00;96440.84;5072800;28;20228;-58
2021/08/22 02:02:05;;;;;;;4.30;3.80;;;;;;;20.07;100.00;96442.38;5053738;28;20241;-59
2021/08/22 02:04:40;;;;;;;4.30;3.87;;;;;;;20.06;100.00;96443.44;5053238;28;20916;-58
2021/08/22 02:07:12;;;;;;;5.03;4.40;;;;;;;19.98;100.00;96446.75;5053416;28;20741;-59
2021/08/22 02:10:05;;;;;;;6.00;4.40;;;;;;;20.04;100.00;96444.78;5053428;28;20892;-58
2021/08/22 02:12:32;;;;;;;4.23;3.50;;;;;;;20.16;100.00;96446.03;5055335;28;20426;-57
2021/08/22 02:15:09;;;;;;;8.60;5.13;;;;;;;20.15;100.00;96440.94;5057669;28;20464;-58
2021/08/22 02:17:41;;;;;;;4.00;3.60;;;;;;;20.07;100.00;96441.56;5073527;28;20397;-58
2021/08/22 02:20:07;;;;;;;3.60;3.30;;;;;;;20.05;100.00;96435.72;5073822;28;20761;-60
2021/08/22 02:22:34;;;;;;;3.33;3.03;;;;;;;20.06;100.00;96438.09;5073436;28;20419;-59
2021/08/22 02:25:00;;;;;;;7.17;3.60;;;;;;;20.08;100.00;96437.81;5072906;28;20437;-58
2021/08/22 02:27:30;;;;;;;3.30;3.00;;;;;;;20.08;100.00;96438.63;5075352;28;20893;-57
2021/08/22 02:29:55;;;;;;;4.47;3.73;;;;;;;20.22;100.00;96428.06;5070357;28;20187;-59
2021/08/22 02:32:21;;;;;;;4.60;3.83;;;;;;;20.10;100.00;96420.47;5066229;28;20421;-57
2021/08/22 02:34:47;;;;;;;3.83;3.50;;;;;;;20.04;100.00;96413.56;5076931;28;20195;-58
2021/08/22 02:37:12;;;;;;;3.97;3.50;;;;;;;20.20;99.26;96415.03;5077671;28;20171;-59
2021/08/22 02:39:38;;;;;;;3.90;3.20;;;;;;;20.16;98.97;96416.66;5077296;28;20640;-59
2021/08/22 02:42:04;;;;;;;3.60;3.30;;;;;;;20.07;98.75;96417.56;5077385;28;20215;-57
2021/08/22 02:44:30;;;;;;;4.63;3.93;;;;;;;20.10;99.92;96412.44;5076718;28;20194;-58
2021/08/22 02:46:55;;;;;;;3.80;3.50;;;;;;;20.09;100.00;96404.75;5069572;28;20414;-57
2021/08/22 02:49:21;;;;;;;4.20;3.90;;;;;;;20.03;100.00;96412.00;5057054;28;20450;-58
2021/08/22 02:51:47;;;;;;;5.57;4.20;;;;;;;19.74;100.00;96408.56;5057212;28;20627;-59
2021/08/22 02:54:12;;;;;;;3.53;3.23;;;;;;;19.85;100.00;96418.06;5056812;28;20417;-59
2021/08/22 02:56:38;;;;;;;3.80;3.37;;;;;;;19.93;100.00;96414.00;5056733;28;20191;-59
2021/08/22 02:59:03;;;;;;;5.20;3.60;;;;;;;19.82;100.00;96421.28;5057088;28;20164;-58
2021/08/22 03:01:28;;;;;;;6.13;3.93;;;;;;;19.76;100.00;96419.75;5074478;28;20167;-58
2021/08/22 03:03:54;;;;;;;5.73;3.33;;;;;;;19.59;100.00;96430.03;5076519;28;20171;-58
2021/08/22 03:06:19;;;;;;;4.03;3.63;;;;;;;19.65;100.00;96420.94;5076888;28;20246;-58
2021/08/22 03:08:44;;;;;;;5.43;3.60;;;;;;;19.45;100.00;96421.91;5076901;28;20171;-60
2021/08/22 03:11:10;;;;;;;4.50;4.03;;;;;;;19.27;100.00;96427.91;5076875;28;20174;-59
2021/08/22 03:13:36;;;;;;;4.20;3.60;;;;;;;19.14;100.00;96425.84;5076242;28;20166;-58
2021/08/22 03:16:01;;;;;;;3.87;3.50;;;;;;;19.35;100.00;96421.19;5066278;28;20233;-58
2021/08/22 03:18:27;;;;;;;4.67;3.80;;;;;;;19.14;100.00;96422.38;5066604;28;20634;-58
2021/08/22 03:20:52;;;;;;;5.00;2.90;;;;;;;18.68;100.00;96421.09;5076638;28;20243;-57
2021/08/22 03:23:18;;;;;;;4.50;3.30;;;;;;;18.47;100.00;96425.72;5076024;28;20171;-59
2021/08/22 03:25:43;;;;;;;4.93;3.57;;;;;;;18.30;100.00;96420.72;5076373;28;20201;-57
2021/08/22 03:28:08;;;;;;;3.70;3.00;;;;;;;18.39;100.00;96419.06;5076559;28;20185;-58
2021/08/22 03:30:34;;;;;;;3.80;3.50;;;;;;;18.37;100.00;96425.75;5064231;28;20175;-59
2021/08/22 03:32:59;;;;;;;3.80;2.83;;;;;;;18.38;100.00;96422.00;5056018;28;20179;-57
2021/08/22 03:35:24;;;;;;;4.10;3.70;;;;;;;18.46;100.00;96421.47;5056087;28;20234;-58
2021/08/22 03:37:50;;;;;;;5.40;3.73;;;;;;;18.42;100.00;96429.19;5056217;28;20168;-59
2021/08/22 03:40:15;;;;;;;3.80;3.50;;;;;;;18.18;100.00;96430.06;5055443;28;20163;-57
2021/08/22 03:42:41;;;;;;;3.50;3.20;;;;;;;18.33;100.00;96425.47;5055868;28;20159;-58
2021/08/22 03:45:06;;;;;;;4.67;3.20;;;;;;;18.58;100.00;96426.47;5056114;28;20262;-58
2021/08/22 03:47:32;;;;;;;5.27;3.40;;;;;;;18.88;100.00;96415.66;5056186;28;20191;-59
2021/08/22 03:49:57;;;;;;;3.50;3.20;;;;;;;18.89;100.00;96418.03;5055835;28;20546;-59
2021/08/22 03:52:23;;;;;;;3.40;3.10;;;;;;;18.87;100.00;96420.19;5055933;28;20171;-59
2021/08/22 03:54:48;;;;;;;6.17;3.20;;;;;;;18.08;100.00;96433.53;5055370;28;20203;-57
2021/08/22 03:57:13;;;;;;;3.30;2.97;;;;;;;18.11;100.00;96435.69;5055812;28;20195;-59
2021/08/22 03:59:39;;;;;;;3.60;3.30;;;;;;;18.04;100.00;96440.50;5058145;28;20176;-58
2021/08/22 04:02:05;;;;;;;4.00;3.60;;;;;;;18.23;100.00;96440.69;5055941;28;20213;-59
2021/08/22 04:04:31;;;;;;;3.97;3.57;;;;;;;18.13;100.00;96438.88;5055269;28;20262;-59
2021/08/22 04:06:56;;;;;;;3.63;3.33;;;;;;;18.45;100.00;96428.66;5055807;28;20948;-59
2021/08/22 04:09:24;;;;;;;3.23;3.00;;;;;;;18.19;100.00;96434.34;5074685;28;20174;-57
2021/08/22 04:11:55;;;;;;;3.60;3.30;;;;;;;18.42;100.00;96434.50;5075671;28;20167;-57
2021/08/22 04:14:21;;;;;;;3.73;3.40;;;;;;;17.93;100.00;96436.28;5075019;28;20980;-59
2021/08/22 04:16:48;;;;;;;3.23;3.03;;;;;;;17.55;100.00;96444.03;5075408;28;20488;-59
2021/08/22 04:19:13;;;;;;;3.93;3.53;;;;;;;17.66;100.00;96435.00;5075433;28;20173;-59
2021/08/22 04:21:41;;;;;;;5.37;3.63;;;;;;;17.79;100.00;96439.75;5075561;28;20397;-56
2021/08/22 04:24:07;;;;;;;4.20;3.80;;;;;;;18.07;100.00;96437.28;5055445;28;20270;-58
2021/08/22 04:26:33;;;;;;;3.60;3.30;;;;;;;17.85;100.00;96439.47;5055221;28;20408;-57
2021/08/22 04:28:58;;;;;;;3.93;3.60;;;;;;;18.29;100.00;96450.25;5055341;28;20488;-59
2021/08/22 04:31:23;;;;;;;4.50;4.10;;;;;;;18.30;100.00;96447.31;5055565;28;20226;-59
2021/08/22 04:33:49;;;;;;;3.87;3.53;;;;;;;18.29;100.00;96459.03;5054977;28;20168;-59
2021/08/22 04:36:14;;;;;;;4.20;3.80;;;;;;;18.35;100.00;96462.47;5054967;28;20206;-57
2021/08/22 04:38:39;;;;;;;4.60;4.20;;;;;;;18.30;100.00;96462.47;5072189;28;20186;-57
2021/08/22 04:41:05;;;;;;;6.50;4.20;;;;;;;18.05;100.00;96459.88;5075124;28;20174;-58
2021/08/22 04:43:30;;;;;;;4.67;4.37;;;;;;;17.98;100.00;96462.03;5074522;28;20171;-59
2021/08/22 04:45:56;;;;;;;4.90;4.40;;;;;;;18.13;100.00;96472.66;5074743;28;20183;-59
2021/08/22 04:48:21;;;;;;;5.50;4.90;;;;;;;18.43;100.00;96475.22;5074971;28;20498;-57
2021/08/22 04:50:46;;;;;;;4.90;4.50;;;;;;;18.25;100.00;96471.28;5066130;28;20210;-59
2021/08/22 04:53:12;;;;;;;4.30;4.00;;;;;;;18.47;100.00;96470.97;5054540;28;20641;-58
2021/08/22 04:55:37;;;;;;;4.70;4.30;;;;;;;18.50;100.00;96469.63;5054551;28;20195;-59
2021/08/22 04:58:02;;;;;;;5.03;4.57;;;;;;;18.95;100.00;96467.53;5054840;28;20255;-58
2021/08/22 05:00:28;;;;;;;5.70;4.77;;;;;;;19.37;100.00;96456.34;5054615;28;20258;-58
2021/08/22 05:02:53;;;;;;;5.07;4.67;;;;;;;19.46;100.00;96460.81;5054211;28;20175;-58
2021/08/22 05:05:18;;;;;;;5.47;4.90;;;;;;;19.57;100.00;96460.75;5059812;28;20186;-59
2021/08/22 05:07:44;;;;;;;5.17;4.77;;;;;;;19.77;100.00;96468.53;5074723;28;20193;-58
2021/08/22 05:10:09;;;;;;;5.37;4.87;;;;;;;19.98;100.00;96472.63;5074525;28;20175;-59
2021/08/22 05:12:35;;;;;;;5.43;4.97;;;;;;;20.11;100.00;96470.06;5074001;28;20629;-59
2021/08/22 05:15:00;;;;;;;6.13;4.40;;;;;;;20.29;100.00;96479.28;5074069;28;20285;-59
2021/08/22 05:17:26;;;;;;;5.07;4.67;;;;;;;20.37;100.00;96476.75;5074288;28;20656;-58
2021/08/22 05:19:51;;;;;;;6.73;4.97;;;;;;;20.45;100.00;96472.69;5070303;28;20175;-58
2021/08/22 05:22:16;;;;;;;4.27;3.97;;;;;;;20.39;100.00;96479.94;5054319;28;20630;-58
2021/08/22 05:24:42;;;;;;;5.00;4.50;;;;;;;19.97;100.00;96487.81;5053719;28;20269;-58
2021/08/22 05:27:07;;;;;;;4.47;4.17;;;;;;;19.39;100.00;96488.84;5054071;28;20630;-58
2021/08/22 05:29:32;;;;;;;4.17;3.77;;;;;;;19.07;100.00;96486.66;5054231;28;20628;-58
2021/08/22 05:32:00;;;;;;;4.77;4.27;;;;;;;19.25;100.00;96485.19;5054029;28;20171;-59
2021/08/22 05:34:25;;;;;;;5.43;5.00;;;;;;;18.70;100.00;96488.19;5055353;28;20325;-57
2021/08/22 05:36:50;;;;;;;4.60;4.20;;;;;;;18.67;100.00;96497.50;5067876;28;20497;-58
2021/08/22 05:39:16;;;;;;;5.57;5.17;;;;;;;17.96;100.00;96499.53;5054089;28;20166;-57
2021/08/22 05:41:41;;;;;;;4.70;4.30;;;;;;;18.28;100.00;96502.66;5053952;28;20648;-57
2021/08/22 05:44:07;;;;;;;5.17;4.77;;;;;;;18.53;100.00;96509.81;5053589;28;20167;-58
2021/08/22 05:46:32;;;;;;;6.00;4.93;;;;;;;18.29;100.00;96506.94;5053751;28;20164;-57
2021/08/22 05:48:58;;;;;;;4.80;4.20;;;;;;;18.18;100.00;96502.69;5053750;28;20532;-57
2021/08/22 05:51:23;;;;;;;5.27;4.53;;;;;;;18.11;100.00;96504.03;5069699;28;20178;-59
2021/08/22 05:53:49;;;;;;;5.13;4.70;;;;;;;18.34;100.00;96501.59;5073410;28;20201;-59
2021/08/22 05:56:15;;;;;;;5.77;5.23;;;;;;;17.98;100.00;96494.75;5073348;28;20282;-58
2021/08/22 05:58:41;;;;;;;7.10;5.30;;;;;;;18.28;100.00;96496.56;5073555;28;20488;-59
2021/08/22 06:01:06;;;;;;;5.97;5.47;;;;;;;18.67;100.00;96488.72;5073569;28;20397;-59
2021/08/22 06:03:31;;;;;;;6.00;5.40;;;;;;;18.83;100.00;96485.72;5072848;28;20257;-58
2021/08/22 06:05:58;;;;;;;5.40;4.90;;;;;;;18.38;100.00;96486.69;5058653;28;20213;-57
2021/08/22 06:08:23;;;;;;;5.40;5.00;;;;;;;18.87;100.00;96489.41;5053587;28;20217;-59
2021/08/22 06:10:48;;;;;;;5.97;5.37;;;;;;;18.65;100.00;96493.50;5053502;28;20796;-58
2021/08/22 06:13:14;;;;;;;5.87;5.20;;;;;;;18.40;100.00;96497.84;5053036;28;20186;-57
2021/08/22 06:15:39;;;;;;;5.50;4.70;;;;;;;18.30;100.00;96497.88;5053224;28;20681;-58
2021/08/22 06:18:05;;;;;;;5.23;4.73;;;;;;;18.47;100.00;96492.25;5053425;28;20186;-59
2021/08/22 06:20:30;;;;;;;5.27;4.87;;;;;;;18.99;100.00;96492.53;5066049;28;20721;-57
2021/08/22 06:22:56;;;;;;;6.23;5.40;;;;;;;19.14;100.00;96487.13;5073147;28;20205;-59
2021/08/22 06:25:21;;;;;;;6.70;6.00;;;;;;;19.29;100.00;96483.56;5073049;28;20238;-59
2021/08/22 06:27:47;;;;;;;6.23;5.73;;;;;;;19.17;100.00;96478.56;5073225;28;20258;-57
2021/08/22 06:30:12;;;;;;;6.10;5.50;;;;;;;18.84;100.00;96473.97;5073579;28;20181;-57
2021/08/22 06:32:38;;;;;;;5.80;5.30;;;;;;;18.52;100.00;96478.94;5071607;28;20181;-58
2021/08/22 06:35:04;;;;;;;5.43;5.00;;;;;;;18.28;100.00;96483.25;5061392;28;20264;-57
2021/08/22 06:37:29;;;;;;;5.50;5.00;;;;;;;18.62;100.00;96486.88;5065783;28;20714;-58
2021/08/22 06:39:55;;;;;;;6.53;5.87;;;;;;;18.66;100.00;96495.91;5073232;28;20409;-58
2021/08/22 06:42:20;;;;;;;5.40;4.90;;;;;;;18.92;100.00;96492.06;5073273;28;20167;-58
2021/08/22 06:44:45;;;;;;;5.73;5.20;;;;;;;19.00;100.00;96485.34;5072704;28;20198;-57
2021/08/22 06:47:11;;;;;;;6.30;5.70;;;;;;;18.94;100.00;96481.94;5073454;28;20169;-57
2021/08/22 06:49:37;;;;;;;4.83;4.43;;;;;;;18.88;100.00;96483.00;5067593;28;20171;-57
2021/08/22 06:52:07;;;;;;;6.90;5.63;;;;;;;18.93;100.00;96480.31;5053134;28;20254;-58
2021/08/22 06:54:32;;;;;;;5.87;5.27;;;;;;;18.95;100.00;96483.50;5052315;28;20449;-58
2021/08/22 06:56:57;;;;;;;7.30;6.17;;;;;;;18.86;100.00;96492.38;5052913;28;20442;-57
2021/08/22 06:59:24;;;;;;;5.83;5.23;;;;;;;18.92;100.00;96481.41;5068976;28;20174;-58
2021/08/22 07:01:49;;;;;;;5.80;4.00;;;;;;;18.63;100.00;96479.69;5073128;28;20171;-57
2021/08/22 07:04:15;;;;;;;5.67;5.17;;;;;;;18.53;100.00;96491.19;5072710;28;20547;-57
2021/08/22 07:06:40;;;;;;;6.20;5.70;;;;;;;18.68;100.00;96487.66;5072741;28;20163;-59
2021/08/22 07:09:06;;;;;;;6.27;5.67;;;;;;;18.43;100.00;96488.53;5072965;28;20174;-58
2021/08/22 07:11:31;;;;;;;5.93;5.40;;;;;;;18.63;100.00;96483.13;5072831;28;20171;-58
2021/08/22 07:13:57;;;;;;;5.77;5.27;;;;;;;18.83;100.00;96474.25;5058573;28;20180;-57
2021/08/22 07:16:22;;;;;;;6.47;5.87;;;;;;;18.75;100.00;96490.81;5056676;28;20203;-58
2021/08/22 07:18:48;;;;;;;6.40;5.30;;;;;;;18.60;100.00;96490.88;5056624;28;20160;-58
2021/08/22 07:21:13;;;;;;;5.53;5.03;;;;;;;18.54;100.00;96490.09;5056704;28;20259;-57
2021/08/22 07:23:38;;;;;;;6.83;6.20;;;;;;;18.85;100.00;96478.25;5056049;28;20171;-58
2021/08/22 07:26:04;;;;;;;5.90;4.90;;;;;;;18.59;100.00;96491.97;5056290;28;20207;-57
2021/08/22 07:28:29;;;;;;;6.37;5.87;;;;;;;18.52;100.00;96484.25;5068856;28;20179;-57
2021/08/22 07:30:55;;;;;;;6.77;5.70;;;;;;;18.69;100.00;96478.59;5062676;28;20210;-58
2021/08/22 07:33:20;;;;;;;6.33;5.73;;;;;;;18.82;100.00;96481.47;5075924;28;20197;-58
2021/08/22 07:35:45;;;;;;;5.70;5.20;;;;;;;18.52;100.00;96481.59;5067852;28;20554;-57
2021/08/22 07:38:11;;;;;;;5.40;4.90;;;;;;;18.87;100.00;96486.75;5056127;28;20179;-59
2021/08/22 07:40:37;;;;;;;6.13;5.60;;;;;;;18.77;100.00;96483.34;5055926;28;20175;-59
2021/08/22 07:43:02;;;;;;;5.63;5.07;;;;;;;18.83;100.00;96479.56;5061387;28;20210;-59
2021/08/22 07:45:28;;;;;;;6.80;5.77;;;;;;;18.62;100.00;96488.75;5056020;28;20434;-58
2021/08/22 07:47:53;;;;;;;5.60;5.10;;;;;;;18.91;100.00;96487.00;5074712;28;20200;-60
2021/08/22 07:50:19;;;;;;;6.10;5.50;;;;;;;18.98;100.00;96496.28;5075891;28;20252;-57
2021/08/22 07:52:44;;;;;;;6.30;5.80;;;;;;;19.07;100.00;96491.16;5075646;28;20701;-58
2021/08/22 07:55:10;;;;;;;7.17;5.37;;;;;;;19.30;100.00;96493.16;5075577;28;20623;-57
2021/08/22 07:57:35;;;;;;;6.07;5.37;;;;;;;19.59;100.00;96488.69;5070726;28;20166;-59
2021/08/22 08:00:01;;;;;;;5.60;5.10;;;;;;;19.23;100.00;96496.13;5055723;28;20433;-58
2021/08/22 08:02:26;;;;;;;6.40;4.77;;;;;;;19.22;100.00;96488.41;5075837;28;20293;-58
2021/08/22 08:04:52;;;;;;;6.93;6.23;;;;;;;19.61;100.00;96496.41;5075158;28;20541;-57
2021/08/22 08:07:18;;;;;;;6.53;5.60;;;;;;;19.81;100.00;96488.25;5075550;28;20167;-57
2021/08/22 08:09:43;;;;;;;5.20;4.80;;;;;;;20.08;100.00;96497.31;5075683;28;20166;-60
2021/08/22 08:12:09;;;;;;;6.63;4.80;;;;;;;20.30;100.00;96504.88;5075698;28;20406;-58
2021/08/22 08:14:34;;;;;;;5.70;4.97;;;;;;;20.29;100.00;96501.41;5074928;28;20193;-58
2021/08/22 08:16:59;;;;;;;5.33;4.83;;;;;;;20.23;100.00;96502.53;5056815;28;20593;-60
2021/08/22 08:19:25;;;;;;;8.00;6.43;;;;;;;20.35;100.00;96504.81;5055300;28;20262;-58
2021/08/22 08:21:50;;;;;;;6.50;5.50;;;;;;;19.84;100.00;96509.81;5055243;28;20179;-60
2021/08/22 08:24:16;;;;;;;5.60;5.10;;;;;;;19.90;100.00;96508.69;5061164;28;20572;-58
2021/08/22 08:26:41;;;;;;;5.50;4.90;;;;;;;19.89;100.00;96501.75;5075309;28;20625;-57
2021/08/22 08:29:07;;;;;;;5.07;4.67;;;;;;;20.05;100.00;96505.91;5074268;28;20216;-60
2021/08/22 08:31:35;;;;;;;5.73;5.23;;;;;;;19.92;100.00;96509.22;5075249;28;20171;-58
2021/08/22 08:34:02;;;;;;;5.30;4.80;;;;;;;20.63;100.00;96505.84;5074643;28;20196;-60
2021/08/22 08:36:28;;;;;;;6.30;5.70;;;;;;;20.32;100.00;96500.84;5058662;28;20449;-57
2021/08/22 08:38:53;;;;;;;5.47;4.97;;;;;;;20.78;100.00;96509.09;5055149;28;20402;-60
2021/08/22 08:41:18;;;;;;;7.40;5.70;;;;;;;20.37;100.00;96513.34;5055063;28;20171;-60
2021/08/22 08:43:47;;;;;;;5.23;4.83;;;;;;;21.08;100.00;96518.66;5060553;28;20181;-58
2021/08/22 08:46:28;;;;;;;5.00;4.60;;;;;;;20.33;100.00;96514.97;5067261;28;20195;-57
2021/08/22 08:49:04;;;;;;;6.23;4.83;;;;;;;20.30;100.00;96523.56;5054751;28;20406;-60
2021/08/22 08:51:33;;;;;;;5.33;4.90;;;;;;;20.57;100.00;96518.44;5054904;28;20409;-60
2021/08/22 08:54:00;;;;;;;6.27;5.53;;;;;;;20.73;100.00;96521.72;5054246;28;20755;-57
2021/08/22 08:56:36;;;;;;;7.10;5.40;;;;;;;20.29;100.00;96533.44;5054669;28;20963;-60
2021/08/22 08:59:01;;;;;;;6.00;5.50;;;;;;;20.25;99.55;96531.63;5067501;28;20423;-57
2021/08/22 09:01:26;;;;;;;6.03;4.77;;;;;;;20.19;100.00;96530.88;5074686;28;20401;-57
2021/08/22 09:04:06;;;;;;;5.20;4.53;;;;;;;20.58;100.00;96529.94;5074198;28;20163;-57
2021/08/22 09:06:44;;;;;;;5.80;5.30;;;;;;;20.79;100.00;96534.75;5074323;28;20223;-60
2021/08/22 09:09:42;;;;;;;5.63;5.17;;;;;;;20.41;99.54;96530.38;5074532;28;20427;-59
2021/08/22 09:12:31;;;;;;;6.03;5.40;;;;;;;20.61;100.00;96537.38;5074426;28;20404;-62
2021/08/22 09:15:34;;;;;;;6.23;5.30;;;;;;;20.44;100.00;96540.47;5053872;28;20527;-59
2021/08/22 09:18:27;;;;;;;5.47;5.03;;;;;;;20.38;100.00;96534.41;5056279;28;20417;-60
2021/08/22 09:21:29;;;;;;;5.30;4.80;;;;;;;20.33;100.00;96534.47;5060164;28;20406;-60
2021/08/22 09:24:16;;;;;;;5.67;5.07;;;;;;;20.86;99.52;96523.72;5058771;28;20408;-59
2021/08/22 09:27:18;;;;;;;6.13;5.53;;;;;;;21.21;98.20;96517.94;5073950;28;20407;-59
2021/08/22 09:29:59;;;;;;;6.07;4.93;;;;;;;21.31;97.59;96525.81;5054180;28;20767;-59
2021/08/22 09:33:02;;;;;;;5.60;4.80;;;;;;;21.30;97.39;96521.56;5053990;28;20900;-61
2021/08/22 09:35:58;;;;;;;6.00;5.00;;;;;;;21.29;95.56;96527.97;5053793;28;20861;-60
2021/08/22 09:38:37;;;;;;;6.40;5.40;;;;;;;21.24;95.80;96523.50;5070314;28;20913;-59
2021/08/22 09:41:33;;;;;;;4.90;4.47;;;;;;;21.27;94.14;96520.25;5070303;28;20915;-60
2021/08/22 09:44:32;;;;;;;5.40;4.90;;;;;;;21.14;94.83;96530.88;5068986;28;20409;-59
2021/08/22 09:47:41;;;;;;;5.10;4.60;;;;;;;20.47;97.85;96522.03;5070196;28;20412;-59
2021/08/22 09:50:39;;;;;;;5.70;5.10;;;;;;;20.33;97.63;96513.09;5068684;28;20814;-59
2021/08/22 09:53:26;;;;;;;5.73;5.23;;;;;;;21.11;94.29;96510.03;5069796;28;20497;-60
2021/08/22 09:56:33;;;;;;;5.87;5.37;;;;;;;21.24;95.05;96517.34;5069919;28;20489;-60
2021/08/22 09:59:23;;;;;;;6.50;5.90;;;;;;;21.25;95.35;96521.63;5051025;28;20559;-60
2021/08/22 10:01:57;;;;;;;5.67;5.17;;;;;;;21.25;95.13;96522.41;5049484;28;20410;-68
2021/08/22 10:04:44;;;;;;;5.37;4.87;;;;;;;21.02;95.32;96533.94;5049710;28;20456;-62
2021/08/22 10:07:37;;;;;;;5.73;5.23;;;;;;;20.72;96.44;96526.28;5064449;28;20516;-59
2021/08/22 10:10:13;;;;;;;8.73;5.10;;;;;;;21.01;95.92;96523.56;5068117;28;20467;-58
2021/08/22 10:12:39;;;;;;;5.67;5.23;;;;;;;20.77;98.01;96525.41;5059703;28;20432;-60
2021/08/22 10:15:04;;;;;;;6.17;5.63;;;;;;;20.65;98.44;96517.84;5060451;28;20527;-60
2021/08/22 10:17:32;;;;;;;7.00;5.50;;;;;;;20.79;96.65;96531.28;5060726;28;20181;-59
2021/08/22 10:19:57;;;;;;;5.90;5.40;;;;;;;20.38;98.27;96522.94;5058882;28;20179;-60
2021/08/22 10:22:36;;;;;;;5.50;5.00;;;;;;;20.85;97.97;96525.59;5057638;28;20425;-60
2021/08/22 10:25:05;;;;;;;7.90;5.80;;;;;;;21.12;96.60;96527.69;5060677;28;20210;-60
2021/08/22 10:27:30;;;;;;;5.80;5.17;;;;;;;20.91;96.04;96531.66;5060642;28;20424;-60
2021/08/22 10:29:57;;;;;;;5.13;4.63;;;;;;;20.41;98.95;96520.50;5058581;28;20425;-59
2021/08/22 10:32:23;;;;;;;6.00;5.50;;;;;;;20.42;100.00;96516.75;5058832;28;20319;-60
2021/08/22 10:35:07;;;;;;;6.07;5.53;;;;;;;20.22;100.00;96518.81;5057672;28;20644;-60
2021/08/22 10:37:34;;;;;;;6.53;5.90;;;;;;;20.07;100.00;96514.44;5056870;28;20195;-60
2021/08/22 10:40:25;;;;;;;6.33;5.60;;;;;;;20.55;100.00;96509.94;5058957;28;20433;-60
2021/08/22 10:42:56;;;;;;;7.03;6.40;;;;;;;20.40;100.00;96507.41;5059985;28;20508;-59
2021/08/22 10:45:40;;;;;;;8.97;6.97;;;;;;;20.26;100.00;96506.50;5056177;28;20544;-60
2021/08/22 10:48:09;;;;;;;6.67;6.07;;;;;;;20.65;100.00;96509.81;5069572;28;20421;-60
2021/08/22 10:50:56;;;;;;;6.67;6.07;;;;;;;20.59;100.00;96508.28;5066448;28;20517;-64
2021/08/22 10:53:27;;;;;;;6.17;5.67;;;;;;;20.71;100.00;96508.66;5071976;28;20926;-57
2021/08/22 10:55:53;;;;;;;6.20;5.70;;;;;;;20.49;100.00;96508.38;5073589;28;20543;-58
2021/08/22 10:58:18;;;;;;;6.80;6.13;;;;;;;21.17;100.00;96500.88;5073324;28;20994;-60
2021/08/22 11:00:44;;;;;;;7.00;6.40;;;;;;;20.94;100.00;96509.72;5068944;28;20203;-61
2021/08/22 11:03:20;;;;;;;6.77;5.40;;;;;;;20.95;100.00;96505.97;5051207;28;20179;-62
2021/08/22 11:05:47;;;;;;;6.43;5.83;;;;;;;20.58;100.00;96512.03;5053355;28;20206;-59
2021/08/22 11:08:20;;;;;;;6.33;5.73;;;;;;;20.64;100.00;96505.53;5053444;28;20875;-61
2021/08/22 11:11:05;;;;;;;7.30;5.93;;;;;;;21.25;100.00;96525.06;5051794;28;20421;-59
2021/08/22 11:13:32;;;;;;;7.30;6.60;;;;;;;21.36;100.00;96518.50;5064340;28;20481;-58
2021/08/22 11:16:04;;;;;;;7.53;5.97;;;;;;;21.58;100.00;96525.94;5071761;28;20459;-59
2021/08/22 11:18:29;;;;;;;7.00;6.30;;;;;;;21.87;100.00;96517.78;5072983;28;20444;-59
2021/08/22 11:20:55;;;;;;;6.27;5.50;;;;;;;22.15;100.00;96520.22;5072936;28;20857;-60
2021/08/22 11:23:21;;;;;;;7.53;5.73;;;;;;;21.65;100.00;96525.56;5072571;28;20183;-59
2021/08/22 11:25:51;;;;;;;4.27;3.90;;;;;;;21.05;97.96;96546.72;5072233;28;20217;-60
2021/08/22 11:28:18;;;;;;;3.50;3.20;;;;;;;21.30;96.38;96533.06;5066592;28;20414;-61
2021/08/22 11:30:45;;;;;;;2.70;2.50;;;;;;;21.66;92.24;96535.97;5054050;28;20441;-59
2021/08/22 11:33:12;;;;;;;3.70;2.60;;;;;;;21.57;92.02;96539.59;5072358;28;20417;-61
2021/08/22 11:35:39;;;;;;;3.70;2.43;;;;;;;21.90;90.87;96543.94;5053967;28;20503;-60